sensor_id;sensor_type;location;lat;lon;timestamp;P1;durP1;ratioP1;P2;durP2;ratioP2
49488;SDS011;35382;51.484;11.476;2024-03-07T00:00:24;28.80;;;16.63;;
49488;SDS011;35382;51.484;11.476;2024-03-07T00:02:50;29.90;;;16.83;;
49488;SDS011;35382;51.484;11.476;2024-03-07T00:05:16;31.17;;;17.58;;
49488;SDS011;35382;51.484;11.476;2024-03-07T00:07:43;31.05;;;17.52;;
49488;SDS011;35382;51.484;11.476;2024-03-07T00:10:10;29.67;;;17.77;;
49488;SDS011;35382;51.484;11.476;2024-03-07T00:12:36;31.80;;;17.45;;
49488;SDS011;35382;51.484;11.476;2024-03-07T00:15:05;30.15;;;17.48;;
49488;SDS011;35382;51.484;11.476;2024-03-07T00:17:34;32.03;;;18.25;;
49488;SDS011;35382;51.484;11.476;2024-03-07T00:20:00;32.40;;;18.00;;
49488;SDS011;35382;51.484;11.476;2024-03-07T00:22:26;29.40;;;17.45;;
49488;SDS011;35382;51.484;11.476;2024-03-07T00:24:52;29.77;;;17.52;;
49488;SDS011;35382;51.484;11.476;2024-03-07T00:27:18;33.67;;;19.30;;
49488;SDS011;35382;51.484;11.476;2024-03-07T00:29:43;47.47;;;23.98;;
49488;SDS011;35382;51.484;11.476;2024-03-07T00:32:08;31.75;;;17.27;;
49488;SDS011;35382;51.484;11.476;2024-03-07T00:34:34;30.08;;;17.23;;
49488;SDS011;35382;51.484;11.476;2024-03-07T00:36:59;28.75;;;16.52;;
49488;SDS011;35382;51.484;11.476;2024-03-07T00:39:25;28.90;;;16.92;;
49488;SDS011;35382;51.484;11.476;2024-03-07T00:41:51;32.92;;;19.08;;
49488;SDS011;35382;51.484;11.476;2024-03-07T00:44:16;32.40;;;18.05;;
49488;SDS011;35382;51.484;11.476;2024-03-07T00:46:42;28.67;;;16.90;;
49488;SDS011;35382;51.484;11.476;2024-03-07T00:49:07;31.52;;;17.17;;
49488;SDS011;35382;51.484;11.476;2024-03-07T00:51:33;31.65;;;17.48;;
49488;SDS011;35382;51.484;11.476;2024-03-07T00:53:58;32.75;;;16.42;;
49488;SDS011;35382;51.484;11.476;2024-03-07T00:56:24;30.35;;;16.70;;
49488;SDS011;35382;51.484;11.476;2024-03-07T00:58:50;29.45;;;17.90;;
49488;SDS011;35382;51.484;11.476;2024-03-07T01:01:16;30.57;;;16.63;;
49488;SDS011;35382;51.484;11.476;2024-03-07T01:03:42;31.55;;;17.65;;
49488;SDS011;35382;51.484;11.476;2024-03-07T01:06:08;31.05;;;16.98;;
49488;SDS011;35382;51.484;11.476;2024-03-07T01:08:33;34.08;;;18.10;;
49488;SDS011;35382;51.484;11.476;2024-03-07T01:10:59;34.63;;;18.27;;
49488;SDS011;35382;51.484;11.476;2024-03-07T01:13:24;30.90;;;17.15;;
49488;SDS011;35382;51.484;11.476;2024-03-07T01:15:50;29.58;;;17.50;;
49488;SDS011;35382;51.484;11.476;2024-03-07T01:18:18;134.18;;;53.78;;
49488;SDS011;35382;51.484;11.476;2024-03-07T01:20:43;37.35;;;19.67;;
49488;SDS011;35382;51.484;11.476;2024-03-07T01:23:09;32.72;;;19.05;;
49488;SDS011;35382;51.484;11.476;2024-03-07T01:25:34;33.10;;;18.23;;
49488;SDS011;35382;51.484;11.476;2024-03-07T01:28:02;36.30;;;19.08;;
49488;SDS011;35382;51.484;11.476;2024-03-07T01:30:28;35.67;;;18.23;;
49488;SDS011;35382;51.484;11.476;2024-03-07T01:32:53;32.85;;;17.70;;
49488;SDS011;35382;51.484;11.476;2024-03-07T01:35:19;31.13;;;17.67;;
49488;SDS011;35382;51.484;11.476;2024-03-07T01:37:45;34.20;;;17.85;;
49488;SDS011;35382;51.484;11.476;2024-03-07T01:40:11;33.80;;;18.60;;
49488;SDS011;35382;51.484;11.476;2024-03-07T01:42:37;35.55;;;19.05;;
49488;SDS011;35382;51.484;11.476;2024-03-07T01:45:02;38.50;;;18.05;;
49488;SDS011;35382;51.484;11.476;2024-03-07T01:47:28;35.55;;;18.98;;
49488;SDS011;35382;51.484;11.476;2024-03-07T01:49:54;33.15;;;17.85;;
49488;SDS011;35382;51.484;11.476;2024-03-07T01:52:19;35.22;;;19.08;;
49488;SDS011;35382;51.484;11.476;2024-03-07T01:54:46;34.42;;;19.00;;
49488;SDS011;35382;51.484;11.476;2024-03-07T01:57:12;38.22;;;20.10;;
49488;SDS011;35382;51.484;11.476;2024-03-07T01:59:37;43.35;;;21.55;;
49488;SDS011;35382;51.484;11.476;2024-03-07T02:02:02;42.55;;;20.75;;
49488;SDS011;35382;51.484;11.476;2024-03-07T02:04:28;39.03;;;21.17;;
49488;SDS011;35382;51.484;11.476;2024-03-07T02:06:53;38.20;;;21.27;;
49488;SDS011;35382;51.484;11.476;2024-03-07T02:09:19;40.83;;;21.17;;
49488;SDS011;35382;51.484;11.476;2024-03-07T02:11:47;41.90;;;20.85;;
49488;SDS011;35382;51.484;11.476;2024-03-07T02:14:12;42.33;;;23.08;;
49488;SDS011;35382;51.484;11.476;2024-03-07T02:16:38;41.15;;;21.10;;
49488;SDS011;35382;51.484;11.476;2024-03-07T02:19:03;41.35;;;21.27;;
49488;SDS011;35382;51.484;11.476;2024-03-07T02:21:29;50.55;;;22.75;;
49488;SDS011;35382;51.484;11.476;2024-03-07T02:23:54;43.60;;;22.45;;
49488;SDS011;35382;51.484;11.476;2024-03-07T02:26:19;47.80;;;23.05;;
49488;SDS011;35382;51.484;11.476;2024-03-07T02:28:45;40.65;;;21.35;;
49488;SDS011;35382;51.484;11.476;2024-03-07T02:31:10;42.38;;;23.25;;
49488;SDS011;35382;51.484;11.476;2024-03-07T02:33:35;44.05;;;23.80;;
49488;SDS011;35382;51.484;11.476;2024-03-07T02:36:01;45.70;;;23.70;;
49488;SDS011;35382;51.484;11.476;2024-03-07T02:38:27;42.47;;;22.88;;
49488;SDS011;35382;51.484;11.476;2024-03-07T02:40:53;44.17;;;23.23;;
49488;SDS011;35382;51.484;11.476;2024-03-07T02:43:18;50.22;;;24.20;;
49488;SDS011;35382;51.484;11.476;2024-03-07T02:45:43;51.97;;;24.33;;
49488;SDS011;35382;51.484;11.476;2024-03-07T02:48:09;48.50;;;25.23;;
49488;SDS011;35382;51.484;11.476;2024-03-07T02:50:37;53.33;;;27.13;;
49488;SDS011;35382;51.484;11.476;2024-03-07T02:53:03;52.50;;;27.48;;
49488;SDS011;35382;51.484;11.476;2024-03-07T02:55:29;54.38;;;26.45;;
49488;SDS011;35382;51.484;11.476;2024-03-07T02:57:54;50.08;;;25.35;;
49488;SDS011;35382;51.484;11.476;2024-03-07T03:00:20;51.55;;;25.52;;
49488;SDS011;35382;51.484;11.476;2024-03-07T03:02:46;51.17;;;26.45;;
49488;SDS011;35382;51.484;11.476;2024-03-07T03:05:12;56.42;;;27.38;;
49488;SDS011;35382;51.484;11.476;2024-03-07T03:07:38;50.57;;;25.97;;
49488;SDS011;35382;51.484;11.476;2024-03-07T03:10:04;59.83;;;28.20;;
49488;SDS011;35382;51.484;11.476;2024-03-07T03:12:30;161.82;;;61.10;;
49488;SDS011;35382;51.484;11.476;2024-03-07T03:14:55;60.63;;;28.77;;
49488;SDS011;35382;51.484;11.476;2024-03-07T03:17:20;52.05;;;27.10;;
49488;SDS011;35382;51.484;11.476;2024-03-07T03:19:46;59.63;;;28.92;;
49488;SDS011;35382;51.484;11.476;2024-03-07T03:22:11;56.92;;;28.75;;
49488;SDS011;35382;51.484;11.476;2024-03-07T03:24:36;55.47;;;28.13;;
49488;SDS011;35382;51.484;11.476;2024-03-07T03:27:02;56.50;;;27.67;;
49488;SDS011;35382;51.484;11.476;2024-03-07T03:29:27;57.00;;;29.98;;
49488;SDS011;35382;51.484;11.476;2024-03-07T03:31:53;52.90;;;28.02;;
49488;SDS011;35382;51.484;11.476;2024-03-07T03:34:18;56.90;;;28.77;;
49488;SDS011;35382;51.484;11.476;2024-03-07T03:36:43;55.20;;;28.15;;
49488;SDS011;35382;51.484;11.476;2024-03-07T03:39:09;48.22;;;25.30;;
49488;SDS011;35382;51.484;11.476;2024-03-07T03:41:34;55.70;;;27.67;;
49488;SDS011;35382;51.484;11.476;2024-03-07T03:43:59;47.88;;;25.30;;
49488;SDS011;35382;51.484;11.476;2024-03-07T03:46:25;49.20;;;26.35;;
49488;SDS011;35382;51.484;11.476;2024-03-07T03:48:50;48.22;;;25.95;;
49488;SDS011;35382;51.484;11.476;2024-03-07T03:53:43;51.80;;;25.73;;
49488;SDS011;35382;51.484;11.476;2024-03-07T03:56:09;52.20;;;26.05;;
49488;SDS011;35382;51.484;11.476;2024-03-07T03:58:35;52.17;;;24.85;;
49488;SDS011;35382;51.484;11.476;2024-03-07T04:01:00;52.95;;;25.90;;
49488;SDS011;35382;51.484;11.476;2024-03-07T04:03:26;55.05;;;26.48;;
49488;SDS011;35382;51.484;11.476;2024-03-07T04:05:51;49.90;;;26.92;;
49488;SDS011;35382;51.484;11.476;2024-03-07T04:08:17;51.85;;;27.88;;
49488;SDS011;35382;51.484;11.476;2024-03-07T04:10:42;51.53;;;26.20;;
49488;SDS011;35382;51.484;11.476;2024-03-07T04:13:07;47.67;;;25.35;;
49488;SDS011;35382;51.484;11.476;2024-03-07T04:15:33;46.35;;;24.88;;
49488;SDS011;35382;51.484;11.476;2024-03-07T04:17:58;44.63;;;25.13;;
49488;SDS011;35382;51.484;11.476;2024-03-07T04:20:24;80.38;;;41.55;;
49488;SDS011;35382;51.484;11.476;2024-03-07T04:22:49;47.05;;;24.40;;
49488;SDS011;35382;51.484;11.476;2024-03-07T04:25:14;46.08;;;24.77;;
49488;SDS011;35382;51.484;11.476;2024-03-07T04:27:40;43.75;;;23.48;;
49488;SDS011;35382;51.484;11.476;2024-03-07T04:30:06;43.20;;;23.67;;
49488;SDS011;35382;51.484;11.476;2024-03-07T04:32:32;45.05;;;22.23;;
49488;SDS011;35382;51.484;11.476;2024-03-07T04:34:58;43.20;;;24.05;;
49488;SDS011;35382;51.484;11.476;2024-03-07T04:37:23;44.00;;;23.85;;
49488;SDS011;35382;51.484;11.476;2024-03-07T04:39:49;44.85;;;23.83;;
49488;SDS011;35382;51.484;11.476;2024-03-07T04:42:14;45.63;;;24.08;;
49488;SDS011;35382;51.484;11.476;2024-03-07T04:44:39;49.60;;;25.33;;
49488;SDS011;35382;51.484;11.476;2024-03-07T04:47:05;42.30;;;25.13;;
49488;SDS011;35382;51.484;11.476;2024-03-07T04:49:31;48.50;;;25.45;;
49488;SDS011;35382;51.484;11.476;2024-03-07T04:51:58;52.50;;;26.33;;
49488;SDS011;35382;51.484;11.476;2024-03-07T04:54:25;55.55;;;28.42;;
49488;SDS011;35382;51.484;11.476;2024-03-07T04:56:51;58.27;;;29.17;;
49488;SDS011;35382;51.484;11.476;2024-03-07T04:59:18;56.93;;;28.00;;
49488;SDS011;35382;51.484;11.476;2024-03-07T05:01:44;54.83;;;26.98;;
49488;SDS011;35382;51.484;11.476;2024-03-07T05:04:14;56.07;;;26.43;;
49488;SDS011;35382;51.484;11.476;2024-03-07T05:06:41;69.18;;;28.58;;
49488;SDS011;35382;51.484;11.476;2024-03-07T05:09:07;64.95;;;29.30;;
49488;SDS011;35382;51.484;11.476;2024-03-07T05:11:33;84.13;;;37.80;;
49488;SDS011;35382;51.484;11.476;2024-03-07T05:13:59;71.22;;;32.45;;
49488;SDS011;35382;51.484;11.476;2024-03-07T05:16:28;73.53;;;32.45;;
49488;SDS011;35382;51.484;11.476;2024-03-07T05:18:53;79.53;;;35.17;;
49488;SDS011;35382;51.484;11.476;2024-03-07T05:21:19;84.70;;;34.00;;
49488;SDS011;35382;51.484;11.476;2024-03-07T05:23:45;86.00;;;36.00;;
49488;SDS011;35382;51.484;11.476;2024-03-07T05:26:10;84.05;;;35.20;;
49488;SDS011;35382;51.484;11.476;2024-03-07T05:28:35;87.28;;;36.60;;
49488;SDS011;35382;51.484;11.476;2024-03-07T05:31:01;102.93;;;38.22;;
49488;SDS011;35382;51.484;11.476;2024-03-07T05:33:31;107.78;;;38.22;;
49488;SDS011;35382;51.484;11.476;2024-03-07T05:35:56;104.60;;;39.47;;
49488;SDS011;35382;51.484;11.476;2024-03-07T05:38:22;109.00;;;40.00;;
49488;SDS011;35382;51.484;11.476;2024-03-07T05:40:47;123.90;;;43.47;;
49488;SDS011;35382;51.484;11.476;2024-03-07T05:43:12;108.47;;;40.63;;
49488;SDS011;35382;51.484;11.476;2024-03-07T05:45:38;112.35;;;39.25;;
49488;SDS011;35382;51.484;11.476;2024-03-07T05:48:14;109.10;;;40.35;;
49488;SDS011;35382;51.484;11.476;2024-03-07T05:50:40;113.57;;;41.55;;
49488;SDS011;35382;51.484;11.476;2024-03-07T05:53:05;140.35;;;44.65;;
49488;SDS011;35382;51.484;11.476;2024-03-07T05:55:30;127.90;;;45.38;;
49488;SDS011;35382;51.484;11.476;2024-03-07T05:57:56;131.30;;;46.45;;
49488;SDS011;35382;51.484;11.476;2024-03-07T06:00:21;134.73;;;48.50;;
49488;SDS011;35382;51.484;11.476;2024-03-07T06:02:47;128.38;;;46.58;;
49488;SDS011;35382;51.484;11.476;2024-03-07T06:05:12;118.38;;;42.60;;
49488;SDS011;35382;51.484;11.476;2024-03-07T06:07:37;116.05;;;43.65;;
49488;SDS011;35382;51.484;11.476;2024-03-07T06:10:03;117.05;;;43.22;;
49488;SDS011;35382;51.484;11.476;2024-03-07T06:12:28;126.10;;;45.28;;
49488;SDS011;35382;51.484;11.476;2024-03-07T06:14:54;119.00;;;43.55;;
49488;SDS011;35382;51.484;11.476;2024-03-07T06:17:19;103.72;;;42.17;;
49488;SDS011;35382;51.484;11.476;2024-03-07T06:19:44;111.28;;;46.13;;
49488;SDS011;35382;51.484;11.476;2024-03-07T06:22:10;115.72;;;43.15;;
49488;SDS011;35382;51.484;11.476;2024-03-07T06:24:35;112.55;;;43.83;;
49488;SDS011;35382;51.484;11.476;2024-03-07T06:27:00;98.18;;;41.53;;
49488;SDS011;35382;51.484;11.476;2024-03-07T06:29:26;110.00;;;42.50;;
49488;SDS011;35382;51.484;11.476;2024-03-07T06:31:51;105.00;;;41.25;;
49488;SDS011;35382;51.484;11.476;2024-03-07T06:34:19;108.72;;;42.22;;
49488;SDS011;35382;51.484;11.476;2024-03-07T06:36:44;101.80;;;39.95;;
49488;SDS011;35382;51.484;11.476;2024-03-07T06:39:10;92.28;;;40.20;;
49488;SDS011;35382;51.484;11.476;2024-03-07T06:41:35;94.50;;;40.63;;
49488;SDS011;35382;51.484;11.476;2024-03-07T06:44:01;96.38;;;40.75;;
49488;SDS011;35382;51.484;11.476;2024-03-07T06:46:27;107.10;;;41.88;;
49488;SDS011;35382;51.484;11.476;2024-03-07T06:48:52;126.53;;;54.80;;
49488;SDS011;35382;51.484;11.476;2024-03-07T06:51:17;101.03;;;43.88;;
49488;SDS011;35382;51.484;11.476;2024-03-07T06:53:43;85.70;;;39.30;;
49488;SDS011;35382;51.484;11.476;2024-03-07T06:56:09;87.40;;;38.10;;
49488;SDS011;35382;51.484;11.476;2024-03-07T06:58:37;87.78;;;38.50;;
49488;SDS011;35382;51.484;11.476;2024-03-07T07:01:03;86.63;;;38.53;;
49488;SDS011;35382;51.484;11.476;2024-03-07T07:03:28;89.55;;;38.58;;
49488;SDS011;35382;51.484;11.476;2024-03-07T07:05:54;89.90;;;37.95;;
49488;SDS011;35382;51.484;11.476;2024-03-07T07:08:19;77.63;;;35.40;;
49488;SDS011;35382;51.484;11.476;2024-03-07T07:10:45;81.30;;;35.97;;
49488;SDS011;35382;51.484;11.476;2024-03-07T07:13:11;76.18;;;35.65;;
49488;SDS011;35382;51.484;11.476;2024-03-07T07:15:36;80.53;;;35.30;;
49488;SDS011;35382;51.484;11.476;2024-03-07T07:18:02;70.63;;;33.63;;
49488;SDS011;35382;51.484;11.476;2024-03-07T07:20:28;74.22;;;33.40;;
49488;SDS011;35382;51.484;11.476;2024-03-07T07:22:54;75.90;;;34.80;;
49488;SDS011;35382;51.484;11.476;2024-03-07T07:25:19;69.63;;;33.03;;
49488;SDS011;35382;51.484;11.476;2024-03-07T07:30:15;77.55;;;35.33;;
49488;SDS011;35382;51.484;11.476;2024-03-07T07:32:42;77.80;;;34.38;;
49488;SDS011;35382;51.484;11.476;2024-03-07T07:35:08;79.07;;;36.40;;
49488;SDS011;35382;51.484;11.476;2024-03-07T07:37:34;73.05;;;33.50;;
49488;SDS011;35382;51.484;11.476;2024-03-07T07:40:00;73.00;;;34.03;;
49488;SDS011;35382;51.484;11.476;2024-03-07T07:42:26;57.95;;;29.63;;
49488;SDS011;35382;51.484;11.476;2024-03-07T07:44:51;74.07;;;33.95;;
49488;SDS011;35382;51.484;11.476;2024-03-07T07:47:16;72.63;;;34.67;;
49488;SDS011;35382;51.484;11.476;2024-03-07T07:49:42;60.47;;;29.90;;
49488;SDS011;35382;51.484;11.476;2024-03-07T07:52:07;63.50;;;29.88;;
49488;SDS011;35382;51.484;11.476;2024-03-07T07:54:32;59.05;;;30.05;;
49488;SDS011;35382;51.484;11.476;2024-03-07T07:56:58;67.70;;;30.52;;
49488;SDS011;35382;51.484;11.476;2024-03-07T07:59:23;60.85;;;30.13;;
49488;SDS011;35382;51.484;11.476;2024-03-07T08:01:49;68.53;;;32.78;;
49488;SDS011;35382;51.484;11.476;2024-03-07T08:04:14;66.45;;;32.97;;
49488;SDS011;35382;51.484;11.476;2024-03-07T08:06:39;64.22;;;31.63;;
49488;SDS011;35382;51.484;11.476;2024-03-07T08:09:05;69.15;;;34.80;;
49488;SDS011;35382;51.484;11.476;2024-03-07T08:11:30;61.25;;;30.73;;
49488;SDS011;35382;51.484;11.476;2024-03-07T08:13:55;62.63;;;31.42;;
49488;SDS011;35382;51.484;11.476;2024-03-07T08:16:21;66.50;;;34.13;;
49488;SDS011;35382;51.484;11.476;2024-03-07T08:18:46;65.20;;;32.30;;
49488;SDS011;35382;51.484;11.476;2024-03-07T08:21:11;60.53;;;31.15;;
49488;SDS011;35382;51.484;11.476;2024-03-07T08:23:38;60.95;;;30.92;;
49488;SDS011;35382;51.484;11.476;2024-03-07T08:26:03;55.67;;;27.80;;
49488;SDS011;35382;51.484;11.476;2024-03-07T08:28:28;56.08;;;28.27;;
49488;SDS011;35382;51.484;11.476;2024-03-07T08:30:54;53.30;;;29.33;;
49488;SDS011;35382;51.484;11.476;2024-03-07T08:33:19;49.42;;;27.70;;
49488;SDS011;35382;51.484;11.476;2024-03-07T08:35:44;56.83;;;28.90;;
49488;SDS011;35382;51.484;11.476;2024-03-07T08:38:10;52.67;;;26.73;;
49488;SDS011;35382;51.484;11.476;2024-03-07T08:40:35;48.78;;;24.65;;
49488;SDS011;35382;51.484;11.476;2024-03-07T08:43:01;53.88;;;29.67;;
49488;SDS011;35382;51.484;11.476;2024-03-07T08:45:27;48.42;;;25.55;;
49488;SDS011;35382;51.484;11.476;2024-03-07T08:47:54;50.38;;;26.42;;
49488;SDS011;35382;51.484;11.476;2024-03-07T08:52:46;52.42;;;26.45;;
49488;SDS011;35382;51.484;11.476;2024-03-07T08:55:13;51.50;;;26.25;;
49488;SDS011;35382;51.484;11.476;2024-03-07T08:57:40;44.15;;;24.02;;
49488;SDS011;35382;51.484;11.476;2024-03-07T09:00:07;44.83;;;25.38;;
49488;SDS011;35382;51.484;11.476;2024-03-07T09:02:37;46.00;;;24.45;;
49488;SDS011;35382;51.484;11.476;2024-03-07T09:05:04;39.22;;;23.08;;
49488;SDS011;35382;51.484;11.476;2024-03-07T09:07:30;32.83;;;17.83;;
49488;SDS011;35382;51.484;11.476;2024-03-07T09:09:56;30.02;;;18.13;;
49488;SDS011;35382;51.484;11.476;2024-03-07T09:12:22;31.27;;;18.40;;
49488;SDS011;35382;51.484;11.476;2024-03-07T09:14:48;26.98;;;15.50;;
49488;SDS011;35382;51.484;11.476;2024-03-07T09:17:13;25.77;;;15.48;;
49488;SDS011;35382;51.484;11.476;2024-03-07T09:19:38;27.65;;;15.75;;
49488;SDS011;35382;51.484;11.476;2024-03-07T09:22:04;26.40;;;16.35;;
49488;SDS011;35382;51.484;11.476;2024-03-07T09:24:30;21.00;;;12.30;;
49488;SDS011;35382;51.484;11.476;2024-03-07T09:26:56;21.80;;;11.73;;
49488;SDS011;35382;51.484;11.476;2024-03-07T09:29:22;22.13;;;12.98;;
49488;SDS011;35382;51.484;11.476;2024-03-07T09:31:51;21.60;;;12.50;;
49488;SDS011;35382;51.484;11.476;2024-03-07T09:34:17;17.55;;;9.00;;
49488;SDS011;35382;51.484;11.476;2024-03-07T09:36:43;20.35;;;11.75;;
49488;SDS011;35382;51.484;11.476;2024-03-07T09:39:08;24.90;;;12.65;;
49488;SDS011;35382;51.484;11.476;2024-03-07T09:41:34;20.95;;;12.40;;
49488;SDS011;35382;51.484;11.476;2024-03-07T09:44:00;20.58;;;12.52;;
49488;SDS011;35382;51.484;11.476;2024-03-07T09:46:26;20.48;;;11.38;;
49488;SDS011;35382;51.484;11.476;2024-03-07T09:48:52;20.40;;;11.60;;
49488;SDS011;35382;51.484;11.476;2024-03-07T09:51:21;20.40;;;11.48;;
49488;SDS011;35382;51.484;11.476;2024-03-07T09:53:50;26.38;;;13.25;;
49488;SDS011;35382;51.484;11.476;2024-03-07T09:56:19;21.35;;;12.63;;
49488;SDS011;35382;51.484;11.476;2024-03-07T09:58:49;21.40;;;12.98;;
49488;SDS011;35382;51.484;11.476;2024-03-07T10:01:19;21.70;;;13.18;;
49488;SDS011;35382;51.484;11.476;2024-03-07T10:03:47;19.13;;;11.70;;
49488;SDS011;35382;51.484;11.476;2024-03-07T10:06:13;17.05;;;10.48;;
49488;SDS011;35382;51.484;11.476;2024-03-07T10:08:39;18.02;;;10.55;;
49488;SDS011;35382;51.484;11.476;2024-03-07T10:11:05;14.88;;;8.55;;
49488;SDS011;35382;51.484;11.476;2024-03-07T10:13:30;16.05;;;8.23;;
49488;SDS011;35382;51.484;11.476;2024-03-07T10:15:59;21.10;;;11.63;;
49488;SDS011;35382;51.484;11.476;2024-03-07T10:18:24;18.38;;;10.93;;
49488;SDS011;35382;51.484;11.476;2024-03-07T10:20:49;18.65;;;10.00;;
49488;SDS011;35382;51.484;11.476;2024-03-07T10:23:21;17.38;;;10.93;;
49488;SDS011;35382;51.484;11.476;2024-03-07T10:25:47;17.37;;;10.47;;
49488;SDS011;35382;51.484;11.476;2024-03-07T10:28:13;21.48;;;11.38;;
49488;SDS011;35382;51.484;11.476;2024-03-07T10:30:41;18.52;;;11.52;;
49488;SDS011;35382;51.484;11.476;2024-03-07T10:33:08;18.75;;;10.63;;
49488;SDS011;35382;51.484;11.476;2024-03-07T10:35:33;16.30;;;10.00;;
49488;SDS011;35382;51.484;11.476;2024-03-07T10:37:59;16.92;;;9.10;;
49488;SDS011;35382;51.484;11.476;2024-03-07T10:40:24;16.65;;;9.90;;
49488;SDS011;35382;51.484;11.476;2024-03-07T10:42:49;17.25;;;8.98;;
49488;SDS011;35382;51.484;11.476;2024-03-07T10:45:20;16.40;;;9.63;;
49488;SDS011;35382;51.484;11.476;2024-03-07T10:47:46;16.95;;;9.27;;
49488;SDS011;35382;51.484;11.476;2024-03-07T10:50:29;18.95;;;10.02;;
49488;SDS011;35382;51.484;11.476;2024-03-07T10:53:07;19.15;;;11.23;;
49488;SDS011;35382;51.484;11.476;2024-03-07T10:56:17;18.67;;;10.82;;
49488;SDS011;35382;51.484;11.476;2024-03-07T11:01:44;16.23;;;9.55;;
49488;SDS011;35382;51.484;11.476;2024-03-07T11:04:14;15.68;;;10.45;;
49488;SDS011;35382;51.484;11.476;2024-03-07T11:06:42;18.55;;;9.75;;
49488;SDS011;35382;51.484;11.476;2024-03-07T11:09:08;16.88;;;9.52;;
49488;SDS011;35382;51.484;11.476;2024-03-07T11:11:33;20.00;;;9.80;;
49488;SDS011;35382;51.484;11.476;2024-03-07T11:13:59;18.20;;;10.77;;
49488;SDS011;35382;51.484;11.476;2024-03-07T11:16:25;18.50;;;11.15;;
49488;SDS011;35382;51.484;11.476;2024-03-07T11:21:45;18.77;;;11.65;;
49488;SDS011;35382;51.484;11.476;2024-03-07T11:24:22;19.67;;;12.57;;
49488;SDS011;35382;51.484;11.476;2024-03-07T11:26:51;19.77;;;11.27;;
49488;SDS011;35382;51.484;11.476;2024-03-07T11:32:06;18.40;;;9.82;;
49488;SDS011;35382;51.484;11.476;2024-03-07T11:34:31;18.20;;;11.35;;
49488;SDS011;35382;51.484;11.476;2024-03-07T11:36:57;19.98;;;12.10;;
49488;SDS011;35382;51.484;11.476;2024-03-07T11:42:46;19.30;;;11.65;;
49488;SDS011;35382;51.484;11.476;2024-03-07T11:45:08;20.57;;;11.53;;
49488;SDS011;35382;51.484;11.476;2024-03-07T11:47:37;21.48;;;13.13;;
49488;SDS011;35382;51.484;11.476;2024-03-07T11:50:04;20.08;;;12.23;;
49488;SDS011;35382;51.484;11.476;2024-03-07T11:52:30;18.50;;;10.70;;
49488;SDS011;35382;51.484;11.476;2024-03-07T11:54:55;20.58;;;11.68;;
49488;SDS011;35382;51.484;11.476;2024-03-07T11:57:21;18.65;;;11.25;;
49488;SDS011;35382;51.484;11.476;2024-03-07T11:59:47;16.45;;;10.75;;
49488;SDS011;35382;51.484;11.476;2024-03-07T12:02:12;21.45;;;11.60;;
49488;SDS011;35382;51.484;11.476;2024-03-07T12:04:38;17.70;;;10.80;;
49488;SDS011;35382;51.484;11.476;2024-03-07T12:07:03;18.42;;;11.35;;
49488;SDS011;35382;51.484;11.476;2024-03-07T12:09:28;19.17;;;11.35;;
49488;SDS011;35382;51.484;11.476;2024-03-07T12:11:54;19.25;;;11.85;;
49488;SDS011;35382;51.484;11.476;2024-03-07T12:14:20;18.33;;;11.25;;
49488;SDS011;35382;51.484;11.476;2024-03-07T12:16:45;18.70;;;11.85;;
49488;SDS011;35382;51.484;11.476;2024-03-07T12:19:12;18.27;;;11.95;;
49488;SDS011;35382;51.484;11.476;2024-03-07T12:21:37;22.00;;;12.87;;
49488;SDS011;35382;51.484;11.476;2024-03-07T12:24:12;16.65;;;10.43;;
49488;SDS011;35382;51.484;11.476;2024-03-07T12:26:38;17.17;;;11.00;;
49488;SDS011;35382;51.484;11.476;2024-03-07T12:29:10;15.73;;;9.60;;
49488;SDS011;35382;51.484;11.476;2024-03-07T12:31:36;18.02;;;10.35;;
49488;SDS011;35382;51.484;11.476;2024-03-07T12:34:01;13.57;;;8.60;;
49488;SDS011;35382;51.484;11.476;2024-03-07T12:36:28;15.68;;;9.65;;
49488;SDS011;35382;51.484;11.476;2024-03-07T12:38:54;18.15;;;10.77;;
49488;SDS011;35382;51.484;11.476;2024-03-07T12:41:19;16.95;;;11.27;;
49488;SDS011;35382;51.484;11.476;2024-03-07T12:43:47;19.73;;;11.48;;
49488;SDS011;35382;51.484;11.476;2024-03-07T12:46:13;16.38;;;10.45;;
49488;SDS011;35382;51.484;11.476;2024-03-07T12:48:39;19.98;;;10.75;;
49488;SDS011;35382;51.484;11.476;2024-03-07T12:51:04;14.77;;;8.02;;
49488;SDS011;35382;51.484;11.476;2024-03-07T12:53:30;16.88;;;10.15;;
49488;SDS011;35382;51.484;11.476;2024-03-07T12:55:55;18.98;;;11.07;;
49488;SDS011;35382;51.484;11.476;2024-03-07T12:58:21;15.43;;;9.57;;
49488;SDS011;35382;51.484;11.476;2024-03-07T13:00:46;19.70;;;11.57;;
49488;SDS011;35382;51.484;11.476;2024-03-07T13:03:11;19.85;;;11.73;;
49488;SDS011;35382;51.484;11.476;2024-03-07T13:05:37;18.50;;;11.00;;
49488;SDS011;35382;51.484;11.476;2024-03-07T13:08:02;21.25;;;12.95;;
49488;SDS011;35382;51.484;11.476;2024-03-07T13:10:28;19.05;;;11.43;;
49488;SDS011;35382;51.484;11.476;2024-03-07T13:12:53;18.45;;;11.15;;
49488;SDS011;35382;51.484;11.476;2024-03-07T13:15:19;17.88;;;10.40;;
49488;SDS011;35382;51.484;11.476;2024-03-07T13:17:44;19.60;;;10.48;;
49488;SDS011;35382;51.484;11.476;2024-03-07T13:20:10;18.63;;;10.13;;
49488;SDS011;35382;51.484;11.476;2024-03-07T13:22:37;20.38;;;11.95;;
49488;SDS011;35382;51.484;11.476;2024-03-07T13:25:03;15.60;;;10.82;;
49488;SDS011;35382;51.484;11.476;2024-03-07T13:27:29;18.95;;;10.68;;
49488;SDS011;35382;51.484;11.476;2024-03-07T13:29:54;18.92;;;10.55;;
49488;SDS011;35382;51.484;11.476;2024-03-07T13:32:20;19.50;;;11.13;;
49488;SDS011;35382;51.484;11.476;2024-03-07T13:34:45;19.65;;;11.27;;
49488;SDS011;35382;51.484;11.476;2024-03-07T13:37:11;22.50;;;11.60;;
49488;SDS011;35382;51.484;11.476;2024-03-07T13:39:36;17.45;;;11.23;;
49488;SDS011;35382;51.484;11.476;2024-03-07T13:42:02;22.75;;;11.68;;
49488;SDS011;35382;51.484;11.476;2024-03-07T13:44:27;20.27;;;11.90;;
49488;SDS011;35382;51.484;11.476;2024-03-07T13:46:53;17.90;;;11.93;;
49488;SDS011;35382;51.484;11.476;2024-03-07T13:49:18;20.23;;;12.13;;
49488;SDS011;35382;51.484;11.476;2024-03-07T13:51:43;23.30;;;12.73;;
49488;SDS011;35382;51.484;11.476;2024-03-07T13:54:09;18.40;;;11.38;;
49488;SDS011;35382;51.484;11.476;2024-03-07T13:56:39;18.45;;;11.18;;
49488;SDS011;35382;51.484;11.476;2024-03-07T13:59:21;22.15;;;12.10;;
49488;SDS011;35382;51.484;11.476;2024-03-07T14:12:56;19.98;;;12.43;;
49488;SDS011;35382;51.484;11.476;2024-03-07T14:15:35;19.77;;;12.20;;
49488;SDS011;35382;51.484;11.476;2024-03-07T14:21:11;20.13;;;12.85;;
49488;SDS011;35382;51.484;11.476;2024-03-07T14:30:18;18.40;;;11.73;;
49488;SDS011;35382;51.484;11.476;2024-03-07T14:32:49;19.00;;;11.60;;
49488;SDS011;35382;51.484;11.476;2024-03-07T14:40:29;19.67;;;12.02;;
49488;SDS011;35382;51.484;11.476;2024-03-07T14:42:55;20.83;;;11.98;;
49488;SDS011;35382;51.484;11.476;2024-03-07T14:45:25;21.00;;;11.30;;
49488;SDS011;35382;51.484;11.476;2024-03-07T14:47:56;20.35;;;12.60;;